Time;durP1;ratioP1;P1;durP2;ratioP2;P2;SDS_P1;SDS_P2;PMS_P1;PMS_P2;Temp;Humidity;BMP_temperature;BMP_pressure;BME280_temperature;BME280_humidity;BME280_pressure;Samples;Min_cycle;Max_cycle;Signal;HPM_P1;HPM_P2
2024/01/11 00:00:24;;;;;;;83.93;38.22;;;-3.30;99.90;;;;;;5051074;28;20455;-48
2024/01/11 00:02:49;;;;;;;58.20;27.58;;;-3.30;99.90;;;;;;5033069;28;20025;-50
2024/01/11 00:05:15;;;;;;;53.05;26.55;;;-3.30;99.90;;;;;;5051536;28;20029;-46
2024/01/11 00:07:40;;;;;;;63.35;29.15;;;-3.50;99.90;;;;;;5051126;28;20028;-48
2024/01/11 00:10:06;;;;;;;54.20;26.75;;;-3.50;99.90;;;;;;5051374;28;20104;-52
2024/01/11 00:12:31;;;;;;;62.13;26.23;;;-3.60;99.90;;;;;;5051189;28;20508;-49
2024/01/11 00:14:58;;;;;;;55.58;26.75;;;-3.50;99.90;;;;;;5033247;28;20048;-48
2024/01/11 00:17:25;;;;;;;72.13;30.65;;;-3.50;99.90;;;;;;5051054;28;20025;-49
2024/01/11 00:19:50;;;;;;;63.30;27.83;;;-3.50;99.90;;;;;;5051433;28;20083;-50
2024/01/11 00:22:16;;;;;;;67.28;31.20;;;-3.60;99.90;;;;;;5051158;28;20021;-49
2024/01/11 00:24:41;;;;;;;58.50;28.13;;;-3.60;99.90;;;;;;5033128;28;20392;-49
2024/01/11 00:27:07;;;;;;;62.25;28.05;;;-3.60;99.90;;;;;;5033154;28;20097;-49
2024/01/11 00:29:33;;;;;;;61.20;27.67;;;-3.60;99.90;;;;;;5051047;28;20123;-50
2024/01/11 00:31:59;;;;;;;49.90;26.77;;;-3.50;99.90;;;;;;5051356;28;20115;-53
2024/01/11 00:34:24;;;;;;;59.20;28.00;;;-3.50;99.90;;;;;;5051017;28;20112;-53
2024/01/11 00:36:50;;;;;;;56.13;27.65;;;-3.50;99.90;;;;;;5051306;28;20065;-53
2024/01/11 00:39:15;;;;;;;68.82;28.52;;;-3.60;99.90;;;;;;5051102;28;20485;-48
2024/01/11 00:41:41;;;;;;;52.50;26.88;;;-3.60;99.90;;;;;;5050926;28;20032;-53
2024/01/11 00:44:07;;;;;;;63.47;29.40;;;-3.60;99.90;;;;;;5050923;28;20044;-48
2024/01/11 00:46:33;;;;;;;60.08;26.92;;;-3.70;99.90;;;;;;5050653;28;20112;-54
2024/01/11 00:48:58;;;;;;;58.35;26.25;;;-3.60;99.90;;;;;;5050904;28;20518;-49
2024/01/11 00:51:24;;;;;;;53.25;26.55;;;-3.60;99.90;;;;;;5032922;28;20024;-50
2024/01/11 00:53:49;;;;;;;63.58;28.70;;;-3.60;99.90;;;;;;5050558;28;20032;-53
2024/01/11 00:56:19;;;;;;;62.78;26.60;;;-3.70;99.90;;;;;;5050692;28;20029;-52
2024/01/11 00:58:44;;;;;;;58.70;25.52;;;-3.60;99.90;;;;;;5050780;28;20028;-51
2024/01/11 01:01:10;;;;;;;56.67;28.33;;;-3.60;99.90;;;;;;5050769;28;20021;-53
2024/01/11 01:03:36;;;;;;;55.20;26.48;;;-3.60;99.90;;;;;;5050421;28;20073;-49
2024/01/11 01:06:02;;;;;;;56.45;26.33;;;-3.60;99.90;;;;;;5036235;28;20512;-50
2024/01/11 01:08:28;;;;;;;57.08;26.33;;;-3.70;99.90;;;;;;5054293;28;20070;-52
2024/01/11 01:10:54;;;;;;;56.72;26.52;;;-3.70;99.90;;;;;;5054423;28;20431;-51
2024/01/11 01:13:19;;;;;;;50.10;25.38;;;-3.70;99.90;;;;;;5054318;28;20044;-51
2024/01/11 01:15:45;;;;;;;52.13;26.33;;;-3.70;99.90;;;;;;5054074;28;20575;-50
2024/01/11 01:18:10;;;;;;;65.00;27.00;;;-3.70;99.90;;;;;;5036318;28;20025;-50
2024/01/11 01:20:36;;;;;;;57.80;26.88;;;-3.70;99.90;;;;;;5054366;28;20041;-51
2024/01/11 01:23:02;;;;;;;54.35;27.10;;;-3.70;99.90;;;;;;5054161;28;20043;-51
2024/01/11 01:25:27;;;;;;;66.38;27.60;;;-3.70;99.90;;;;;;5053967;28;20075;-52
2024/01/11 01:27:53;;;;;;;59.28;27.83;;;-3.70;99.90;;;;;;5054000;28;20064;-52
2024/01/11 01:30:18;;;;;;;63.58;29.92;;;-3.70;99.90;;;;;;5053928;28;20116;-50
2024/01/11 01:32:44;;;;;;;57.22;27.77;;;-3.70;99.90;;;;;;5054059;28;20029;-51
2024/01/11 01:35:09;;;;;;;53.55;26.13;;;-3.80;99.90;;;;;;5035854;28;20025;-51
2024/01/11 01:37:35;;;;;;;61.60;28.70;;;-3.80;99.90;;;;;;5036224;28;20025;-48
2024/01/11 01:40:00;;;;;;;59.63;27.08;;;-3.80;99.90;;;;;;5053796;28;20031;-53
2024/01/11 01:42:26;;;;;;;53.85;26.38;;;-3.80;99.90;;;;;;5035984;28;20496;-53
2024/01/11 01:44:51;;;;;;;61.60;27.83;;;-3.80;99.90;;;;;;5053550;28;20032;-51
2024/01/11 01:47:18;;;;;;;58.63;27.15;;;-3.80;99.90;;;;;;5053896;28;20054;-51
2024/01/11 01:49:44;;;;;;;53.28;25.33;;;-3.80;99.90;;;;;;5053854;28;20025;-48
2024/01/11 01:52:14;;;;;;;61.70;27.98;;;-3.80;99.90;;;;;;5053667;28;20025;-49
2024/01/11 01:54:39;;;;;;;58.30;26.08;;;-3.80;99.90;;;;;;5053348;28;20507;-51
2024/01/11 01:57:09;;;;;;;55.63;26.35;;;-3.80;99.90;;;;;;5064004;23;20040;-48
2024/01/11 01:59:35;;;;;;;55.35;28.42;;;-3.80;99.90;;;;;;5033680;28;20025;-47
2024/01/11 02:02:00;;;;;;;61.55;26.38;;;-3.80;99.90;;;;;;5016034;28;20392;-45
2024/01/11 02:04:27;;;;;;;57.47;26.27;;;-3.80;99.90;;;;;;5015736;28;20037;-47
2024/01/11 02:06:55;;;;;;;53.40;25.20;;;-3.90;99.90;;;;;;5015639;28;20022;-50
2024/01/11 02:09:20;;;;;;;57.22;26.27;;;-3.90;99.90;;;;;;5033571;28;20025;-46
2024/01/11 02:11:46;;;;;;;57.92;27.38;;;-3.90;99.90;;;;;;5015673;28;20559;-49
2024/01/11 02:14:12;;;;;;;57.28;26.38;;;-3.90;99.90;;;;;;5033327;28;20132;-47
2024/01/11 02:16:37;;;;;;;57.38;27.40;;;-3.90;99.90;;;;;;5032678;28;20025;-47
2024/01/11 02:19:06;;;;;;;60.75;27.92;;;-3.90;99.90;;;;;;5033351;28;20029;-50
2024/01/11 02:21:33;;;;;;;53.83;25.10;;;-3.90;99.90;;;;;;5033397;28;20389;-52
2024/01/11 02:24:08;;;;;;;66.22;27.65;;;;;;;;;;5032988;28;20061;-50
2024/01/11 02:26:34;;;;;;;55.42;25.95;;;-3.90;99.90;;;;;;5033371;28;20068;-52
2024/01/11 02:29:00;;;;;;;62.25;27.20;;;-3.90;99.90;;;;;;5033270;28;20495;-54
2024/01/11 02:31:26;;;;;;;57.40;25.83;;;-3.90;99.90;;;;;;5033134;28;20083;-51
2024/01/11 02:33:55;;;;;;;61.70;28.02;;;-3.80;99.90;;;;;;5032793;28;20037;-51
2024/01/11 02:36:21;;;;;;;59.63;27.58;;;-3.80;99.90;;;;;;5032904;28;20029;-49
2024/01/11 02:38:48;;;;;;;50.47;23.92;;;-3.80;99.90;;;;;;5014954;28;20017;-49
2024/01/11 02:41:16;;;;;;;59.00;25.40;;;-3.90;99.90;;;;;;5033057;28;20559;-48
2024/01/11 02:43:47;;;;;;;60.47;25.38;;;-3.90;99.90;;;;;;5032672;28;20030;-47
2024/01/11 02:46:14;;;;;;;56.35;26.73;;;-3.90;99.90;;;;;;5032969;28;20389;-52
2024/01/11 02:48:39;;;;;;;53.97;27.05;;;-3.90;99.90;;;;;;5032635;28;20411;-48
2024/01/11 02:51:05;;;;;;;56.67;26.52;;;-3.90;99.90;;;;;;5032612;28;20104;-50
2024/01/11 02:53:34;;;;;;;54.22;26.48;;;-4.00;99.90;;;;;;5014830;28;20056;-47
2024/01/11 02:56:02;;;;;;;62.85;25.73;;;-4.00;99.90;;;;;;5032490;28;20036;-47
2024/01/11 02:58:28;;;;;;;57.13;25.90;;;-4.10;99.90;;;;;;5014477;28;20523;-47
2024/01/11 03:00:53;;;;;;;55.45;25.60;;;-4.10;99.90;;;;;;5014697;28;20030;-49
2024/01/11 03:03:19;;;;;;;51.78;25.70;;;-4.10;99.90;;;;;;5032416;28;20021;-48
2024/01/11 03:05:44;;;;;;;57.78;27.17;;;-4.10;99.90;;;;;;5032169;28;20112;-49
2024/01/11 03:08:09;;;;;;;58.47;26.98;;;-4.10;99.90;;;;;;5032238;28;20025;-53
2024/01/11 03:10:38;;;;;;;62.42;30.85;;;-4.10;99.90;;;;;;5032185;28;20119;-49
2024/01/11 03:13:05;;;;;;;57.95;27.88;;;-4.10;99.90;;;;;;5032263;28;20036;-53
2024/01/11 03:15:30;;;;;;;66.72;27.15;;;-4.20;99.90;;;;;;5032073;28;20075;-51
2024/01/11 03:17:56;;;;;;;64.10;27.13;;;-4.20;99.90;;;;;;5032183;28;20424;-52
2024/01/11 03:20:24;;;;;;;64.00;27.38;;;-4.10;99.90;;;;;;5032001;28;20096;-48
2024/01/11 03:22:53;;;;;;;52.72;25.10;;;-4.10;99.90;;;;;;5032005;28;20014;-49
2024/01/11 03:25:19;;;;;;;52.75;25.10;;;-4.10;99.90;;;;;;5031926;28;20028;-51
2024/01/11 03:27:45;;;;;;;56.58;26.52;;;-4.00;99.90;;;;;;5013844;28;20022;-52
2024/01/11 03:30:11;;;;;;;60.03;26.10;;;-4.00;99.90;;;;;;5014137;28;20056;-49
2024/01/11 03:32:38;;;;;;;57.55;27.10;;;-4.00;99.90;;;;;;5032032;28;20372;-51
2024/01/11 03:35:07;;;;;;;60.47;27.65;;;-3.90;99.90;;;;;;5031473;28;20028;-47
2024/01/11 03:37:33;;;;;;;56.47;26.65;;;-3.90;99.90;;;;;;5032775;28;20018;-48
2024/01/11 03:39:59;;;;;;;57.75;28.02;;;-3.90;99.90;;;;;;5032392;28;20029;-47
2024/01/11 03:42:25;;;;;;;55.45;27.75;;;-3.90;99.90;;;;;;5031727;28;20053;-49
2024/01/11 03:44:50;;;;;;;67.82;28.60;;;-3.90;99.90;;;;;;5031808;28;20489;-48
2024/01/11 03:47:16;;;;;;;63.75;27.27;;;-3.90;99.90;;;;;;5031760;28;20151;-49
2024/01/11 03:49:41;;;;;;;53.30;27.25;;;-4.00;99.90;;;;;;5031597;28;20021;-48
2024/01/11 03:52:07;;;;;;;90.65;43.38;;;-4.00;99.90;;;;;;5031591;28;20041;-48
2024/01/11 03:54:32;;;;;;;61.60;29.30;;;-4.00;99.90;;;;;;5013797;28;20025;-49
2024/01/11 03:56:58;;;;;;;59.38;28.92;;;-3.90;99.90;;;;;;5031707;28;20057;-49
2024/01/11 03:59:23;;;;;;;52.88;26.40;;;-3.90;99.90;;;;;;5031680;28;20049;-49
2024/01/11 04:01:49;;;;;;;57.95;28.25;;;-3.90;99.90;;;;;;5031676;28;20363;-46
2024/01/11 04:04:14;;;;;;;65.75;28.58;;;-3.90;99.90;;;;;;5031347;28;20021;-50
2024/01/11 04:06:40;;;;;;;57.70;27.42;;;-3.80;99.90;;;;;;5031495;28;20481;-47
2024/01/11 04:09:06;;;;;;;54.33;26.45;;;-3.70;99.90;;;;;;5031555;28;20048;-49
2024/01/11 04:11:31;;;;;;;51.67;26.63;;;-3.80;99.90;;;;;;5031451;28;20133;-47
2024/01/11 04:13:57;;;;;;;60.55;26.85;;;-3.80;99.90;;;;;;5031193;28;20025;-48
2024/01/11 04:16:22;;;;;;;60.60;27.45;;;-3.90;99.90;;;;;;5031278;28;20033;-48
2024/01/11 04:18:48;;;;;;;56.33;25.27;;;-4.00;99.90;;;;;;5031673;28;20473;-49
2024/01/11 04:21:23;;;;;;;54.38;26.55;;;-4.10;99.90;;;;;;5031443;28;20029;-53
2024/01/11 04:23:49;;;;;;;60.17;27.30;;;-4.10;99.90;;;;;;5031290;28;20100;-51
2024/01/11 04:26:15;;;;;;;58.97;27.90;;;-4.10;99.90;;;;;;5017605;28;20121;-52
2024/01/11 04:28:40;;;;;;;60.45;28.23;;;-4.10;99.90;;;;;;5039044;28;20508;-52
2024/01/11 04:31:08;;;;;;;55.65;25.88;;;-4.20;99.90;;;;;;5038902;28;20029;-53
2024/01/11 04:33:34;;;;;;;58.60;26.27;;;-4.20;99.90;;;;;;5038395;28;20041;-50
2024/01/11 04:35:59;;;;;;;51.72;27.25;;;-4.20;99.90;;;;;;5035745;28;20485;-50
2024/01/11 04:38:24;;;;;;;54.28;25.98;;;-4.10;99.90;;;;;;5031635;28;20079;-49
2024/01/11 04:40:50;;;;;;;59.80;28.95;;;-4.10;99.90;;;;;;5034666;28;20449;-48
2024/01/11 04:43:15;;;;;;;53.47;27.48;;;-4.10;99.90;;;;;;5035441;28;20076;-48
2024/01/11 04:45:41;;;;;;;60.47;28.15;;;-4.20;99.90;;;;;;5035115;28;20104;-50
2024/01/11 04:48:06;;;;;;;58.08;27.15;;;-4.30;99.90;;;;;;5035008;28;20033;-48
2024/01/11 04:50:32;;;;;;;58.88;26.23;;;-4.30;99.90;;;;;;5034997;28;20071;-48
2024/01/11 04:52:57;;;;;;;65.50;28.80;;;-4.30;99.90;;;;;;5034920;28;20038;-49
2024/01/11 04:55:23;;;;;;;58.42;25.40;;;-4.30;99.90;;;;;;5034833;28;20074;-46
2024/01/11 04:57:48;;;;;;;62.53;26.73;;;-4.30;99.90;;;;;;5034589;28;20520;-48
2024/01/11 05:00:14;;;;;;;58.03;24.90;;;-4.30;99.90;;;;;;5034650;28;20057;-48
2024/01/11 05:02:40;;;;;;;52.65;26.10;;;-4.30;99.90;;;;;;5034815;28;20556;-51
2024/01/11 05:05:06;;;;;;;56.85;26.88;;;-4.20;99.90;;;;;;5034652;28;20493;-49
2024/01/11 05:07:31;;;;;;;55.50;25.52;;;-4.20;99.90;;;;;;5034652;28;20026;-47
2024/01/11 05:09:57;;;;;;;59.95;26.23;;;-4.30;99.90;;;;;;5034677;28;20040;-47
2024/01/11 05:12:22;;;;;;;58.72;26.92;;;-4.30;99.90;;;;;;5034489;28;20029;-53
2024/01/11 05:14:47;;;;;;;58.67;26.25;;;-4.40;99.90;;;;;;5034240;28;20231;-47
2024/01/11 05:17:13;;;;;;;59.00;25.45;;;-4.50;99.90;;;;;;5034273;28;20105;-47
2024/01/11 05:19:38;;;;;;;57.35;26.60;;;-4.40;99.90;;;;;;5034382;28;20033;-49
2024/01/11 05:22:04;;;;;;;54.22;26.33;;;-4.50;99.90;;;;;;5034242;28;20068;-49
2024/01/11 05:24:30;;;;;;;58.42;29.25;;;-4.40;99.90;;;;;;5034206;28;20060;-49
2024/01/11 05:26:55;;;;;;;65.85;29.08;;;-4.40;99.90;;;;;;5034807;28;20029;-47
2024/01/11 05:29:20;;;;;;;58.92;27.67;;;-4.40;99.90;;;;;;5034464;28;20060;-48
2024/01/11 05:31:46;;;;;;;52.45;23.48;;;-4.30;99.90;;;;;;5034452;28;20099;-43
2024/01/11 05:34:12;;;;;;;59.60;27.75;;;-4.30;99.90;;;;;;5034072;28;20112;-50
2024/01/11 05:36:38;;;;;;;55.22;26.02;;;-4.20;99.90;;;;;;5034113;28;20439;-48
2024/01/11 05:39:03;;;;;;;65.10;26.92;;;-4.20;99.90;;;;;;5034129;28;20030;-50
2024/01/11 05:41:29;;;;;;;53.97;27.08;;;-4.20;99.90;;;;;;5034138;28;20025;-50
2024/01/11 05:43:54;;;;;;;55.35;26.33;;;-4.10;99.90;;;;;;5033845;28;20108;-47
2024/01/11 05:46:20;;;;;;;60.03;28.02;;;-4.20;99.90;;;;;;5033999;28;20033;-49
2024/01/11 05:48:45;;;;;;;56.70;25.55;;;-4.30;99.90;;;;;;5033869;28;20022;-50
2024/01/11 05:51:11;;;;;;;59.80;28.38;;;-4.30;99.90;;;;;;5033552;28;20079;-49
2024/01/11 05:53:36;;;;;;;54.40;25.23;;;-4.40;99.90;;;;;;5033753;28;20026;-50
2024/01/11 05:56:07;;;;;;;95.35;31.13;;;-4.50;99.90;;;;;;5033672;28;20026;-47
2024/01/11 05:58:33;;;;;;;60.05;27.67;;;-4.50;99.90;;;;;;5033546;28;20034;-49
2024/01/11 06:00:59;;;;;;;56.05;26.42;;;-4.50;99.90;;;;;;5033713;28;20029;-46
2024/01/11 06:03:24;;;;;;;54.13;24.25;;;-4.70;99.90;;;;;;5033359;28;20123;-49
2024/01/11 06:05:50;;;;;;;52.47;26.67;;;-4.70;99.90;;;;;;5033364;28;20104;-49
2024/01/11 06:08:16;;;;;;;68.65;29.70;;;-4.80;99.90;;;;;;5033382;28;20054;-49
2024/01/11 06:10:42;;;;;;;63.83;27.63;;;-4.80;99.90;;;;;;5033326;28;20025;-52
2024/01/11 06:13:08;;;;;;;53.85;27.20;;;-4.80;99.90;;;;;;5033303;28;20433;-49
2024/01/11 06:15:34;;;;;;;63.92;29.35;;;-4.80;99.90;;;;;;5032975;28;20033;-51
2024/01/11 06:18:00;;;;;;;63.47;28.80;;;-4.90;99.90;;;;;;5033318;28;20026;-46
2024/01/11 06:20:25;;;;;;;63.03;27.92;;;-4.90;99.90;;;;;;5033212;28;20017;-49
2024/01/11 06:22:51;;;;;;;68.55;31.33;;;-4.90;99.90;;;;;;5033246;28;20021;-50
2024/01/11 06:25:16;;;;;;;61.28;26.88;;;-5.00;99.90;;;;;;5032997;28;20029;-47
2024/01/11 06:27:43;;;;;;;58.47;29.15;;;-5.00;99.90;;;;;;5033210;28;20484;-48
2024/01/11 06:30:09;;;;;;;65.15;28.27;;;-5.00;99.90;;;;;;5033081;28;20047;-51
2024/01/11 06:32:34;;;;;;;56.95;27.88;;;-5.00;99.90;;;;;;5033053;28;20401;-47
2024/01/11 06:35:00;;;;;;;55.63;27.13;;;-5.00;99.90;;;;;;5032955;28;20120;-47
2024/01/11 06:37:26;;;;;;;63.42;28.48;;;-5.00;99.90;;;;;;5033006;28;20030;-47
2024/01/11 06:39:52;;;;;;;68.28;30.42;;;-5.00;99.90;;;;;;5033149;28;20025;-51
2024/01/11 06:42:17;;;;;;;61.17;27.48;;;-5.00;99.90;;;;;;5032711;28;20041;-54
2024/01/11 06:44:43;;;;;;;60.80;27.85;;;-4.80;99.90;;;;;;5032757;28;20033;-49
2024/01/11 06:47:08;;;;;;;60.92;27.05;;;-4.80;99.90;;;;;;5032967;28;20489;-55
2024/01/11 06:49:34;;;;;;;59.28;28.13;;;-4.80;99.90;;;;;;5014899;28;20481;-49
2024/01/11 06:51:59;;;;;;;54.78;27.23;;;-4.80;99.90;;;;;;5032663;28;20156;-46
2024/01/11 06:54:25;;;;;;;61.10;28.50;;;-4.80;99.90;;;;;;5032421;28;20033;-47
2024/01/11 06:56:50;;;;;;;61.95;27.92;;;-5.00;99.90;;;;;;5032487;28;20021;-48
2024/01/11 06:59:16;;;;;;;58.28;28.20;;;-5.10;99.90;;;;;;5032406;28;20057;-51
2024/01/11 07:01:41;;;;;;;67.68;29.08;;;-5.20;99.90;;;;;;5032383;28;20096;-49
2024/01/11 07:04:07;;;;;;;68.05;28.65;;;-5.00;99.90;;;;;;5031865;28;20036;-53
2024/01/11 07:06:32;;;;;;;72.28;31.45;;;-5.00;99.90;;;;;;5014661;28;20026;-51
2024/01/11 07:08:58;;;;;;;70.80;31.52;;;-5.10;99.90;;;;;;5014631;28;20518;-51
2024/01/11 07:11:23;;;;;;;63.67;28.15;;;-5.10;99.90;;;;;;5032287;28;20156;-49
2024/01/11 07:13:49;;;;;;;64.30;29.98;;;-5.20;99.90;;;;;;5032086;28;20030;-50
2024/01/11 07:16:14;;;;;;;62.92;28.25;;;-5.20;99.90;;;;;;5033146;28;20523;-50
2024/01/11 07:18:40;;;;;;;68.05;30.17;;;-5.30;99.90;;;;;;5032077;28;20025;-49
2024/01/11 07:21:06;;;;;;;62.67;29.52;;;-5.30;99.90;;;;;;5032175;28;20101;-47
2024/01/11 07:23:31;;;;;;;58.95;29.60;;;-5.30;99.90;;;;;;5032084;28;20634;-47
2024/01/11 07:25:58;;;;;;;58.45;28.50;;;-5.30;99.90;;;;;;5032025;28;20096;-49
2024/01/11 07:28:25;;;;;;;62.53;29.48;;;-5.20;99.90;;;;;;5031817;28;20108;-49
2024/01/11 07:30:52;;;;;;;66.15;27.58;;;-5.10;99.90;;;;;;5032429;28;20037;-48
2024/01/11 07:33:18;;;;;;;69.35;30.05;;;-5.10;99.90;;;;;;5031753;28;20025;-51
2024/01/11 07:35:45;;;;;;;69.35;30.55;;;-5.10;99.90;;;;;;5031865;28;20039;-52
2024/01/11 07:38:11;;;;;;;73.60;32.65;;;-5.00;99.90;;;;;;5031629;28;20025;-52
2024/01/11 07:40:36;;;;;;;74.18;30.52;;;-4.90;99.90;;;;;;5031798;28;20393;-47
2024/01/11 07:43:03;;;;;;;62.08;28.60;;;-4.80;99.90;;;;;;5031627;28;20025;-49
2024/01/11 07:45:30;;;;;;;60.40;29.77;;;-4.70;99.90;;;;;;5031595;28;20025;-50
2024/01/11 07:47:55;;;;;;;66.45;32.17;;;-4.70;99.90;;;;;;5031632;28;20108;-48
2024/01/11 07:50:21;;;;;;;72.18;31.42;;;-4.70;99.90;;;;;;5013939;28;20127;-52
2024/01/11 07:52:46;;;;;;;79.93;32.30;;;-4.80;99.90;;;;;;5031664;28;20033;-49
2024/01/11 07:55:12;;;;;;;67.97;31.02;;;-4.80;99.90;;;;;;5031554;28;20402;-50
2024/01/11 07:57:38;;;;;;;62.53;31.63;;;-4.80;99.90;;;;;;5055069;23;20281;-51
2024/01/11 08:00:06;;;;;;;71.10;30.00;;;-4.80;99.90;;;;;;5033016;28;20032;-48
2024/01/11 08:02:32;;;;;;;67.90;29.30;;;-4.80;99.90;;;;;;5029937;28;20028;-49
2024/01/11 08:04:59;;;;;;;63.83;30.30;;;-4.80;99.90;;;;;;5032259;28;20025;-50
2024/01/11 08:07:25;;;;;;;64.57;31.05;;;-4.90;99.90;;;;;;5042906;28;20551;-49
2024/01/11 08:09:51;;;;;;;65.22;28.98;;;-4.80;99.90;;;;;;5052113;28;20029;-49
2024/01/11 08:12:16;;;;;;;69.25;29.70;;;-4.80;99.90;;;;;;5052099;28;20469;-48
2024/01/11 08:14:42;;;;;;;63.63;30.52;;;-4.60;99.90;;;;;;5051011;28;20075;-49
2024/01/11 08:17:08;;;;;;;60.70;28.92;;;-4.50;99.90;;;;;;5052302;28;20028;-51
2024/01/11 08:19:34;;;;;;;67.75;28.55;;;-4.50;99.90;;;;;;5033784;28;20036;-51
2024/01/11 08:22:00;;;;;;;68.95;31.75;;;-4.50;99.90;;;;;;5052209;28;20528;-53
2024/01/11 08:24:25;;;;;;;71.45;32.40;;;-4.40;99.90;;;;;;5051506;28;20151;-50
2024/01/11 08:26:51;;;;;;;66.15;32.28;;;-4.30;99.90;;;;;;5051904;28;20028;-52
2024/01/11 08:29:19;;;;;;;69.35;31.38;;;-4.20;99.90;;;;;;5052008;28;20231;-52
2024/01/11 08:31:45;;;;;;;71.38;31.27;;;-4.00;99.90;;;;;;5051874;28;20416;-52
2024/01/11 08:34:11;;;;;;;64.53;30.23;;;-4.00;99.90;;;;;;5051935;28;20024;-54
2024/01/11 08:36:38;;;;;;;74.03;32.88;;;-3.90;99.90;;;;;;5051997;28;20112;-49
2024/01/11 08:39:08;;;;;;;72.00;32.65;;;-4.00;99.90;;;;;;5051864;28;20021;-51
2024/01/11 08:41:35;;;;;;;83.60;32.72;;;-3.90;99.90;;;;;;5052972;28;20020;-54
2024/01/11 08:44:02;;;;;;;72.50;33.13;;;-3.90;99.90;;;;;;5034762;28;20021;-53
2024/01/11 08:46:28;;;;;;;63.78;31.75;;;-3.90;99.90;;;;;;5052639;28;20025;-55
2024/01/11 08:48:56;;;;;;;69.15;31.58;;;-3.80;99.90;;;;;;5052926;28;20173;-46
2024/01/11 08:51:22;;;;;;;68.53;34.03;;;-3.80;99.90;;;;;;5033821;28;20032;-49
2024/01/11 08:53:48;;;;;;;71.30;31.77;;;-3.80;99.90;;;;;;5033518;28;20029;-50
2024/01/11 08:56:15;;;;;;;73.25;32.22;;;-3.80;99.90;;;;;;5051307;28;20029;-51
2024/01/11 08:58:41;;;;;;;70.65;30.67;;;-3.80;99.90;;;;;;5051467;28;20048;-54
2024/01/11 09:01:08;;;;;;;72.50;33.65;;;-3.80;99.90;;;;;;5051593;28;20492;-53
2024/01/11 09:03:34;;;;;;;77.93;35.17;;;-3.60;99.90;;;;;;5033620;28;20047;-52
2024/01/11 09:06:00;;;;;;;73.15;32.72;;;-2.80;99.90;;;;;;5051332;28;20025;-49
2024/01/11 09:08:26;;;;;;;64.35;30.13;;;-2.10;99.90;;;;;;5051355;28;20507;-48
2024/01/11 09:10:52;;;;;;;63.80;31.13;;;-1.10;99.90;;;;;;5051151;28;20021;-50
2024/01/11 09:13:18;;;;;;;61.72;31.80;;;-0.40;99.90;;;;;;5051528;28;20087;-51
2024/01/11 09:15:44;;;;;;;72.13;31.08;;;0.00;99.90;;;;;;5051460;28;20026;-52
2024/01/11 09:18:09;;;;;;;65.85;31.52;;;0.20;99.90;;;;;;5051367;28;20021;-50
2024/01/11 09:20:35;;;;;;;58.80;28.42;;;0.20;99.90;;;;;;5051371;28;20067;-50
2024/01/11 09:23:04;;;;;;;63.33;30.48;;;0.30;99.90;;;;;;5051203;28;20049;-53
2024/01/11 09:25:30;;;;;;;63.65;31.83;;;0.50;99.90;;;;;;5052342;28;20032;-52
2024/01/11 09:27:56;;;;;;;62.90;31.17;;;0.70;99.90;;;;;;5054954;28;20432;-51
2024/01/11 09:30:21;;;;;;;61.67;31.17;;;0.50;99.90;;;;;;5054782;28;20072;-55
2024/01/11 09:32:47;;;;;;;65.90;30.33;;;0.40;99.90;;;;;;5054768;28;20130;-48
2024/01/11 09:35:13;;;;;;;64.90;32.05;;;0.80;99.90;;;;;;5054849;28;20052;-50
2024/01/11 09:37:39;;;;;;;59.20;30.63;;;;;;;;;;5036608;28;20036;-52
2024/01/11 09:40:10;;;;;;;66.15;32.65;;;1.40;99.90;;;;;;5036755;28;20531;-49
2024/01/11 09:42:39;;;;;;;62.72;32.20;;;1.90;99.90;;;;;;5036732;28;20071;-54
2024/01/11 09:45:12;;;;;;;55.95;31.15;;;2.30;99.90;;;;;;5054316;28;20029;-51
2024/01/11 09:47:39;;;;;;;57.03;32.40;;;2.70;99.90;;;;;;5054864;28;20032;-50
2024/01/11 09:50:08;;;;;;;64.28;32.88;;;3.20;98.90;;;;;;5054249;28;20032;-52
2024/01/11 09:52:34;;;;;;;57.67;32.47;;;3.20;98.20;;;;;;5036328;28;20060;-50
2024/01/11 09:55:00;;;;;;;61.08;33.13;;;3.10;98.70;;;;;;5036249;28;20080;-53
2024/01/11 09:57:30;;;;;;;61.42;33.13;;;3.50;98.20;;;;;;5054080;28;20178;-51
2024/01/11 09:59:57;;;;;;;68.65;33.78;;;3.60;97.80;;;;;;5054330;28;20082;-51
2024/01/11 10:02:29;;;;;;;75.95;34.85;;;3.40;98.10;;;;;;5053745;28;20104;-53
2024/01/11 10:04:55;;;;;;;63.40;33.20;;;3.00;98.50;;;;;;5054191;28;20538;-54
2024/01/11 10:07:27;;;;;;;59.33;33.05;;;3.00;98.70;;;;;;5053751;28;20029;-51
2024/01/11 10:09:53;;;;;;;61.88;32.33;;;3.40;98.10;;;;;;5053751;28;20511;-51
2024/01/11 10:12:24;;;;;;;65.22;32.97;;;3.60;98.00;;;;;;5053606;28;20044;-49
2024/01/11 10:14:51;;;;;;;58.10;32.17;;;3.20;98.00;;;;;;5053618;28;20021;-49
2024/01/11 10:17:17;;;;;;;58.58;32.45;;;2.70;98.70;;;;;;5053515;28;20500;-50
2024/01/11 10:19:43;;;;;;;65.25;33.13;;;2.20;99.40;;;;;;5053940;28;20096;-51
2024/01/11 10:22:12;;;;;;;60.08;31.92;;;2.00;99.90;;;;;;5053669;28;20021;-50
2024/01/11 10:24:38;;;;;;;61.63;33.78;;;1.70;99.90;;;;;;5053100;28;20112;-49
2024/01/11 10:27:05;;;;;;;62.97;31.10;;;1.40;99.90;;;;;;5035564;28;20039;-49
2024/01/11 10:29:32;;;;;;;64.72;31.65;;;1.20;99.90;;;;;;5053193;28;20025;-50
2024/01/11 10:31:58;;;;;;;61.97;32.95;;;1.10;99.90;;;;;;5053310;28;20477;-45
2024/01/11 10:34:24;;;;;;;61.42;30.17;;;1.00;99.90;;;;;;5053287;28;20085;-52
2024/01/11 10:36:50;;;;;;;61.63;31.77;;;1.00;99.90;;;;;;5052519;28;20021;-49
2024/01/11 10:39:17;;;;;;;68.65;32.30;;;1.30;99.90;;;;;;5035514;28;20378;-49
2024/01/11 10:41:50;;;;;;;61.80;30.48;;;2.00;99.90;;;;;;5035438;28;20028;-49
2024/01/11 10:44:21;;;;;;;62.83;32.58;;;2.50;99.90;;;;;;5052981;28;20029;-55
2024/01/11 10:46:49;;;;;;;61.13;33.65;;;3.00;99.90;;;;;;5054244;28;20025;-54
2024/01/11 10:49:20;;;;;;;62.30;31.88;;;3.10;98.90;;;;;;5052896;28;20154;-50
2024/01/11 10:51:56;;;;;;;57.35;30.10;;;2.90;99.00;;;;;;5052789;28;20503;-52
2024/01/11 10:54:23;;;;;;;66.57;31.10;;;3.00;99.60;;;;;;5052467;28;20033;-52
2024/01/11 10:56:49;;;;;;;61.90;33.88;;;3.50;98.50;;;;;;5052641;28;20048;-51
2024/01/11 10:59:17;;;;;;;59.13;30.73;;;3.60;98.20;;;;;;5052534;28;20086;-49
2024/01/11 11:01:45;;;;;;;65.55;31.48;;;3.70;98.20;;;;;;5034818;28;20025;-55
2024/01/11 11:04:11;;;;;;;56.20;31.27;;;3.80;97.60;;;;;;5034481;28;20021;-50
2024/01/11 11:06:38;;;;;;;57.70;31.30;;;3.80;97.90;;;;;;5034906;28;20029;-52
2024/01/11 11:09:05;;;;;;;63.60;32.33;;;3.60;98.30;;;;;;5034724;28;20025;-51
2024/01/11 11:11:31;;;;;;;58.40;31.08;;;3.40;98.20;;;;;;5052381;28;20021;-45
2024/01/11 11:14:01;;;;;;;56.17;30.77;;;3.30;98.00;;;;;;5052240;28;20028;-50
2024/01/11 11:16:27;;;;;;;69.43;33.30;;;3.20;98.70;;;;;;5052641;28;20468;-51
2024/01/11 11:18:54;;;;;;;71.68;33.08;;;3.00;99.00;;;;;;5052476;28;20036;-51
2024/01/11 11:21:21;;;;;;;59.67;32.13;;;3.00;99.00;;;;;;5052387;28;20074;-49
2024/01/11 11:23:47;;;;;;;59.50;31.00;;;2.80;99.30;;;;;;5052042;28;20396;-48
2024/01/11 11:26:17;;;;;;;59.33;30.70;;;2.60;99.50;;;;;;5052304;28;20037;-51
2024/01/11 11:28:43;;;;;;;59.80;30.42;;;2.40;99.50;;;;;;5052438;28;20527;-49
2024/01/11 11:31:11;;;;;;;62.33;32.40;;;2.20;99.90;;;;;;5052615;28;20033;-51
2024/01/11 11:33:37;;;;;;;70.90;30.73;;;1.80;99.90;;;;;;5052344;28;20025;-51
2024/01/11 11:36:03;;;;;;;60.10;31.15;;;1.60;99.90;;;;;;5052197;28;20468;-48
2024/01/11 11:38:31;;;;;;;63.97;29.60;;;1.40;99.90;;;;;;5052052;28;20021;-51
2024/01/11 11:40:58;;;;;;;55.92;29.80;;;1.10;99.90;;;;;;5052519;28;20025;-49
2024/01/11 11:43:26;;;;;;;59.38;29.40;;;1.10;99.90;;;;;;5052163;28;20489;-51
2024/01/11 11:45:52;;;;;;;59.33;29.70;;;1.00;99.90;;;;;;5051992;28;20029;-52
2024/01/11 11:48:35;;;;;;;60.38;28.95;;;0.80;99.90;;;;;;5052150;28;20025;-53
2024/01/11 11:51:11;;;;;;;62.63;30.73;;;0.80;99.90;;;;;;5034125;28;20601;-51
2024/01/11 11:53:38;;;;;;;55.08;29.17;;;0.80;99.90;;;;;;5052238;28;20025;-48
2024/01/11 11:56:04;;;;;;;62.85;31.05;;;0.90;99.90;;;;;;5051941;28;20021;-50
2024/01/11 11:58:31;;;;;;;60.10;29.08;;;0.90;99.90;;;;;;5033607;28;20500;-49
2024/01/11 12:01:01;;;;;;;57.83;29.13;;;1.00;99.90;;;;;;5034012;28;20549;-55
2024/01/11 12:03:37;;;;;;;56.78;27.80;;;0.90;99.90;;;;;;5051750;28;20107;-51
2024/01/11 12:06:08;;;;;;;50.90;27.15;;;1.00;99.90;;;;;;5052309;28;20032;-55
2024/01/11 12:08:35;;;;;;;58.78;28.20;;;1.00;99.90;;;;;;5034357;28;20108;-50
2024/01/11 12:11:01;;;;;;;52.33;27.77;;;1.00;99.90;;;;;;5051810;28;20484;-51
2024/01/11 12:13:27;;;;;;;55.10;29.20;;;0.90;99.90;;;;;;5051635;28;20029;-54
2024/01/11 12:15:53;;;;;;;59.50;26.38;;;0.90;99.90;;;;;;5051485;28;20049;-50
2024/01/11 12:18:19;;;;;;;53.38;26.45;;;1.00;99.90;;;;;;5051960;28;20396;-50
2024/01/11 12:20:45;;;;;;;55.67;27.15;;;0.90;99.90;;;;;;5051783;28;20099;-50
2024/01/11 12:23:10;;;;;;;52.50;26.75;;;0.80;99.90;;;;;;5034211;28;20024;-50
2024/01/11 12:25:36;;;;;;;53.53;27.00;;;0.90;99.90;;;;;;5051535;28;20037;-48